Time;durP1;ratioP1;P1;durP2;ratioP2;P2;SDS_P1;SDS_P2;PMS_P1;PMS_P2;Temp;Humidity;BMP_temperature;BMP_pressure;BME280_temperature;BME280_humidity;BME280_pressure;Samples;Min_cycle;Max_cycle;Signal;HPM_P1;HPM_P2
2021/03/11 00:02:16;;;;;;;28.98;16.35;;;;;;;2.27;63.92;100485.59;4990274;28;20129;-69
2021/03/11 00:04:44;;;;;;;35.92;18.30;;;;;;;2.31;64.14;100487.22;5005061;28;20123;-70
2021/03/11 00:07:11;;;;;;;32.17;17.63;;;;;;;2.30;64.23;100475.13;5013264;28;20532;-69
2021/03/11 00:09:38;;;;;;;35.05;18.35;;;;;;;2.33;64.45;100477.63;5006201;28;20164;-69
2021/03/11 00:12:06;;;;;;;36.10;18.60;;;;;;;2.43;64.44;100466.13;5008012;28;20056;-69
2021/03/11 00:14:33;;;;;;;30.15;17.42;;;;;;;2.37;65.11;100460.22;4991385;28;20248;-69
2021/03/11 00:17:00;;;;;;;32.97;19.33;;;;;;;2.32;65.47;100446.50;4988019;28;20046;-68
2021/03/11 00:19:27;;;;;;;33.20;19.25;;;;;;;2.40;65.77;100436.75;5007964;28;20676;-69
2021/03/11 00:21:55;;;;;;;35.10;18.50;;;;;;;2.36;65.77;100436.00;5008240;28;20447;-67
2021/03/11 00:24:22;;;;;;;39.72;19.63;;;;;;;2.38;65.96;100436.78;5003439;28;20150;-68
2021/03/11 00:26:49;;;;;;;33.28;18.88;;;;;;;2.30;66.74;100433.59;5004901;28;20422;-69
2021/03/11 00:29:16;;;;;;;39.28;20.08;;;;;;;2.33;66.92;100430.03;5003764;28;20056;-69
2021/03/11 00:31:43;;;;;;;40.80;21.05;;;;;;;2.34;66.94;100424.78;5061776;23;20791;-73
2021/03/11 00:34:11;;;;;;;39.78;21.45;;;;;;;2.29;67.62;100426.66;5049953;28;20052;-71
2021/03/11 00:36:38;;;;;;;41.80;21.83;;;;;;;2.36;67.72;100412.63;5018224;28;20055;-71
2021/03/11 00:39:05;;;;;;;36.83;20.33;;;;;;;2.34;67.85;100408.34;5008112;28;20045;-72
2021/03/11 00:41:32;;;;;;;40.92;21.38;;;;;;;2.38;67.97;100404.75;5027712;28;20053;-72
2021/03/11 00:43:59;;;;;;;36.22;20.10;;;;;;;2.39;68.30;100396.94;5016331;28;20042;-73
2021/03/11 00:46:26;;;;;;;40.75;20.13;;;;;;;2.34;68.65;100385.81;5007058;28;20049;-72
2021/03/11 00:48:53;;;;;;;40.97;20.05;;;;;;;2.32;69.32;100377.22;5024788;28;20046;-72
2021/03/11 00:51:20;;;;;;;46.42;22.02;;;;;;;2.29;69.37;100369.50;5043547;28;21286;-71
2021/03/11 00:53:53;;;;;;;37.78;20.85;;;;;;;2.36;69.17;100365.00;5004938;28;20046;-72
2021/03/11 00:56:20;;;;;;;38.47;20.73;;;;;;;2.29;69.76;100359.97;5019497;28;20093;-72
2021/03/11 00:58:46;;;;;;;40.88;21.95;;;;;;;2.21;70.24;100350.72;5033658;28;20053;-73
2021/03/11 01:01:13;;;;;;;45.67;22.30;;;;;;;2.21;70.50;100345.53;5034790;28;20049;-71
2021/03/11 01:03:40;;;;;;;39.70;22.23;;;;;;;2.21;70.99;100328.19;5028111;28;20164;-71
2021/03/11 01:06:07;;;;;;;42.33;23.20;;;;;;;2.14;70.98;100311.09;5040640;28;20388;-72
2021/03/11 01:08:34;;;;;;;46.50;23.00;;;;;;;2.20;71.23;100299.66;5019483;28;20122;-71
2021/03/11 01:11:01;;;;;;;47.22;24.75;;;;;;;2.17;71.47;100294.59;5038551;28;20053;-70
2021/03/11 01:13:27;;;;;;;44.53;23.63;;;;;;;2.18;71.78;100291.09;5026090;28;20054;-71
2021/03/11 01:15:54;;;;;;;47.70;23.75;;;;;;;2.19;71.88;100295.38;5023442;28;20046;-71
2021/03/11 01:18:22;;;;;;;47.80;23.73;;;;;;;2.20;72.24;100291.88;5031262;28;20037;-71
2021/03/11 01:20:49;;;;;;;42.55;23.65;;;;;;;2.24;72.04;100290.88;4987945;28;20536;-70
2021/03/11 01:23:15;;;;;;;48.47;24.30;;;;;;;2.23;72.40;100295.22;4973670;28;20045;-71
2021/03/11 01:25:42;;;;;;;44.42;23.48;;;;;;;2.26;72.44;100287.34;4990888;28;20543;-71
2021/03/11 01:28:09;;;;;;;42.75;23.50;;;;;;;2.28;72.14;100272.56;4997691;28;20049;-71
2021/03/11 01:30:36;;;;;;;48.47;24.65;;;;;;;2.27;72.29;100273.47;5009653;28;20520;-71
2021/03/11 01:33:03;;;;;;;49.17;25.58;;;;;;;2.25;72.80;100267.47;4992834;28;20045;-72
2021/03/11 01:35:30;;;;;;;43.47;23.98;;;;;;;2.31;72.88;100261.25;5008724;28;20048;-72
2021/03/11 01:37:57;;;;;;;44.90;23.92;;;;;;;2.36;72.95;100254.16;4995229;28;20500;-72
2021/03/11 01:40:23;;;;;;;48.25;25.05;;;;;;;2.42;72.67;100253.09;4989461;28;20052;-71
2021/03/11 01:42:50;;;;;;;49.03;24.60;;;;;;;2.47;72.24;100239.06;5006409;28;20143;-71
2021/03/11 01:45:17;;;;;;;44.83;25.00;;;;;;;2.44;72.92;100236.59;5000935;28;20490;-72
2021/03/11 01:47:44;;;;;;;52.00;25.48;;;;;;;2.38;73.52;100225.53;4996517;28;20059;-71
2021/03/11 01:50:12;;;;;;;50.10;25.88;;;;;;;2.43;73.22;100216.72;5009509;28;20041;-71
2021/03/11 01:52:40;;;;;;;49.97;26.98;;;;;;;2.48;73.05;100201.81;5024188;28;20208;-70
2021/03/11 01:55:07;;;;;;;47.50;25.65;;;;;;;2.48;73.31;100204.41;5001118;28;20058;-71
2021/03/11 01:57:34;;;;;;;50.28;25.98;;;;;;;2.56;73.25;100203.28;4989543;28;20042;-72
2021/03/11 02:00:06;;;;;;;49.15;26.52;;;;;;;2.52;73.43;100199.94;4994956;28;20057;-71
2021/03/11 02:02:34;;;;;;;45.70;25.00;;;;;;;2.56;73.37;100192.91;4999538;28;20049;-72
2021/03/11 02:05:04;;;;;;;49.28;26.60;;;;;;;2.60;73.27;100181.50;5017940;28;20056;-72
2021/03/11 02:07:31;;;;;;;54.40;27.23;;;;;;;2.53;73.69;100179.13;5007031;28;20049;-71
2021/03/11 02:09:58;;;;;;;49.22;27.00;;;;;;;2.59;73.71;100174.63;5025106;28;20049;-71
2021/03/11 02:13:16;;;;;;;52.15;27.30;;;;;;;2.61;73.78;100171.09;5003039;28;20046;-72
2021/03/11 02:15:49;;;;;;;59.95;27.92;;;;;;;2.61;73.81;100165.00;4984139;28;20412;-72
2021/03/11 02:18:28;;;;;;;53.25;27.42;;;;;;;2.60;73.97;100156.38;4998892;28;20076;-71
2021/03/11 02:21:02;;;;;;;47.63;25.50;;;;;;;2.58;74.12;100146.94;5019684;28;20053;-71
2021/03/11 02:24:01;;;;;;;48.00;26.17;;;;;;;2.65;74.14;100141.47;5009278;28;20069;-72
2021/03/11 02:26:48;;;;;;;51.13;26.85;;;;;;;2.69;74.27;100140.47;5028060;28;20813;-71
2021/03/11 02:29:18;;;;;;;52.00;28.65;;;;;;;2.67;74.00;100134.47;4984265;28;20049;-71
2021/03/11 02:31:44;;;;;;;51.80;25.90;;;;;;;2.69;74.09;100124.03;5022759;28;20063;-72
2021/03/11 02:34:15;;;;;;;56.40;29.75;;;;;;;2.71;74.17;100122.25;5009251;28;20050;-71
2021/03/11 02:36:43;;;;;;;51.03;27.20;;;;;;;2.72;74.09;100113.53;4977513;28;20041;-71
2021/03/11 02:39:14;;;;;;;51.95;28.63;;;;;;;2.75;73.95;100110.84;4988848;28;20058;-73
2021/03/11 02:41:42;;;;;;;57.38;29.17;;;;;;;2.74;74.33;100114.31;5001363;28;20060;-72
2021/03/11 02:44:11;;;;;;;51.53;27.35;;;;;;;2.81;74.10;100112.38;4995611;28;20056;-71
2021/03/11 02:46:39;;;;;;;51.92;28.42;;;;;;;2.78;74.29;100113.31;5011089;28;20054;-72
2021/03/11 02:49:06;;;;;;;56.10;27.85;;;;;;;2.84;73.92;100105.31;5007479;28;20555;-73
2021/03/11 02:51:33;;;;;;;54.83;27.60;;;;;;;2.84;74.09;100099.25;5037207;28;20050;-73
2021/03/11 02:54:00;;;;;;;52.40;26.23;;;;;;;2.86;74.45;100094.84;5009566;28;20068;-73
2021/03/11 02:56:27;;;;;;;52.33;27.92;;;;;;;2.93;74.50;100086.78;5013776;28;21043;-73
2021/03/11 02:58:54;;;;;;;55.70;28.27;;;;;;;2.93;74.78;100089.38;5010449;28;20103;-73
2021/03/11 03:01:21;;;;;;;54.80;28.48;;;;;;;2.88;75.54;100088.72;5019845;28;20045;-72
2021/03/11 03:03:50;;;;;;;51.70;28.55;;;;;;;2.90;76.07;100081.69;5016877;28;20053;-73
2021/03/11 03:06:17;;;;;;;58.75;28.67;;;;;;;2.87;76.20;100081.78;4984634;28;20163;-72
2021/03/11 03:08:45;;;;;;;56.85;29.50;;;;;;;2.91;76.78;100070.38;5043454;28;20104;-72
2021/03/11 03:11:13;;;;;;;54.05;29.60;;;;;;;2.84;77.11;100062.84;5035833;28;20072;-72
2021/03/11 03:13:41;;;;;;;58.17;30.35;;;;;;;2.83;77.56;100053.34;5022817;28;20054;-72
2021/03/11 03:16:08;;;;;;;57.47;29.35;;;;;;;2.90;78.04;100045.28;4991910;28;20049;-71
2021/03/11 03:18:35;;;;;;;56.22;29.85;;;;;;;2.95;78.26;100038.16;5009177;28;20052;-72
2021/03/11 03:21:10;;;;;;;53.53;27.77;;;;;;;2.87;78.20;100040.19;5012444;28;20045;-71
2021/03/11 03:23:38;;;;;;;51.25;28.17;;;;;;;2.77;79.37;100031.03;5001701;28;20053;-73
2021/03/11 03:26:05;;;;;;;52.60;29.67;;;;;;;2.85;79.25;100030.78;5000416;28;20132;-72
2021/03/11 03:28:33;;;;;;;54.28;29.25;;;;;;;2.94;78.84;100033.88;5004867;28;20057;-72
2021/03/11 03:30:59;;;;;;;54.42;29.27;;;;;;;2.79;80.03;100019.69;4982463;28;20053;-71
2021/03/11 03:33:27;;;;;;;53.85;28.95;;;;;;;2.83;80.24;100024.75;4995002;28;20053;-70
2021/03/11 03:35:53;;;;;;;53.35;28.17;;;;;;;2.86;80.98;100016.88;4989301;28;20045;-70
2021/03/11 03:38:20;;;;;;;56.03;30.10;;;;;;;2.72;81.83;100013.00;5015223;28;20498;-71
2021/03/11 03:40:47;;;;;;;55.90;30.95;;;;;;;2.73;82.28;99990.47;5024841;28;20057;-71
2021/03/11 03:43:18;;;;;;;67.50;31.77;;;;;;;2.68;83.57;99997.59;5027294;28;20067;-71
2021/03/11 03:45:54;;;;;;;59.85;30.92;;;;;;;2.71;84.12;99987.94;5003216;28;20184;-70
2021/03/11 03:48:28;;;;;;;;;;;;;;;2.76;84.21;99983.41;5013290;28;20414;-71
2021/03/11 03:50:55;;;;;;;56.90;30.35;;;;;;;2.75;84.53;99975.69;5017050;28;19994;-71
2021/03/11 03:53:26;;;;;;;52.92;30.23;;;;;;;2.81;83.99;99959.84;5004891;28;20056;-72
2021/03/11 03:56:30;;;;;;;62.92;32.60;;;;;;;2.76;84.76;99952.22;5003738;28;20053;-70
2021/03/11 03:58:59;;;;;;;56.08;29.52;;;;;;;2.71;85.01;99950.72;5003932;28;20053;-71
2021/03/11 04:01:31;;;;;;;54.83;29.90;;;;;;;2.77;85.73;99947.88;4994240;28;20372;-72
2021/03/11 04:03:59;;;;;;;60.40;33.22;;;;;;;2.73;85.93;99933.28;4993519;28;20123;-71
2021/03/11 04:06:26;;;;;;;57.63;29.98;;;;;;;2.73;86.20;99907.31;5004938;28;20692;-69
2021/03/11 04:08:54;;;;;;;61.55;30.92;;;;;;;2.68;86.20;99891.03;4994320;28;20070;-71
2021/03/11 04:11:21;;;;;;;59.85;32.67;;;;;;;2.64;87.34;99892.06;4990397;28;20049;-71
2021/03/11 04:13:51;;;;;;;56.50;31.00;;;;;;;2.59;87.58;99876.66;5022191;28;20045;-71
2021/03/11 04:16:18;;;;;;;60.83;32.33;;;;;;;2.61;88.77;99869.66;4984573;28;20041;-70
2021/03/11 04:18:46;;;;;;;64.60;32.85;;;;;;;2.61;88.53;99868.78;5010122;28;20050;-71
2021/03/11 04:21:14;;;;;;;60.95;32.22;;;;;;;2.70;89.43;99866.69;5024168;28;20418;-72
2021/03/11 04:23:41;;;;;;;58.60;30.50;;;;;;;2.65;89.15;99858.22;5007171;28;20107;-71
2021/03/11 04:26:10;;;;;;;61.92;32.58;;;;;;;2.64;89.81;99864.31;4991621;28;20417;-72
2021/03/11 04:28:37;;;;;;;62.47;33.33;;;;;;;2.61;90.77;99855.78;5004109;28;20120;-71
2021/03/11 04:31:04;;;;;;;67.35;34.67;;;;;;;2.56;91.66;99842.97;5018538;28;20045;-72
2021/03/11 04:33:31;;;;;;;63.58;30.83;;;;;;;2.59;91.60;99837.66;4993617;28;21195;-70
2021/03/11 04:35:59;;;;;;;59.75;31.77;;;;;;;2.62;91.81;99821.97;4989923;28;20045;-70
2021/03/11 04:38:25;;;;;;;60.33;31.55;;;;;;;2.62;92.18;99818.53;4992477;28;20033;-71
2021/03/11 04:40:52;;;;;;;61.97;33.42;;;;;;;2.59;92.53;99809.09;4982952;28;20585;-70
2021/03/11 04:43:19;;;;;;;57.17;31.85;;;;;;;2.60;93.07;99812.53;5004204;28;20038;-73
2021/03/11 04:45:46;;;;;;;56.80;30.65;;;;;;;2.61;92.88;99798.63;4998396;28;20060;-71
2021/03/11 04:48:13;;;;;;;60.38;32.35;;;;;;;2.60;94.01;99791.75;5027694;28;20521;-71
2021/03/11 04:50:41;;;;;;;64.88;33.13;;;;;;;2.62;93.66;99782.16;4999039;28;20061;-72
2021/03/11 04:53:08;;;;;;;63.42;33.00;;;;;;;2.59;93.95;99782.25;4998818;28;20585;-72
2021/03/11 04:55:35;;;;;;;69.45;34.17;;;;;;;2.62;94.25;99770.00;4992968;28;20406;-71
2021/03/11 04:58:02;;;;;;;61.90;32.25;;;;;;;2.65;93.58;99772.47;4999720;28;20045;-71
2021/03/11 05:00:31;;;;;;;58.55;30.10;;;;;;;2.68;93.82;99777.53;5015249;28;20488;-72
2021/03/11 05:02:59;;;;;;;67.07;33.53;;;;;;;2.69;93.74;99758.44;4993316;28;20041;-71
2021/03/11 05:05:36;;;;;;;61.70;30.92;;;;;;;2.66;94.09;99748.19;4990921;28;20049;-70
2021/03/11 05:08:04;;;;;;;63.88;29.35;;;;;;;2.61;94.60;99742.34;4986467;28;20418;-70
2021/03/11 05:10:32;;;;;;;62.83;30.98;;;;;;;2.66;94.88;99736.94;5013687;28;20065;-71
2021/03/11 05:12:59;;;;;;;64.20;31.73;;;;;;;2.73;94.39;99715.81;5001011;28;20049;-74
2021/03/11 05:15:26;;;;;;;58.63;29.58;;;;;;;2.68;94.61;99711.72;5021957;28;20069;-71
2021/03/11 05:17:53;;;;;;;65.38;32.00;;;;;;;2.76;94.50;99709.66;5014174;28;20408;-72
2021/03/11 05:20:21;;;;;;;61.60;31.17;;;;;;;2.76;94.23;99710.50;4975209;28;20140;-71
2021/03/11 05:22:49;;;;;;;67.43;32.15;;;;;;;2.81;94.50;99696.47;5013477;28;20082;-71
2021/03/11 05:25:16;;;;;;;65.78;29.80;;;;;;;2.88;93.92;99687.50;5033070;28;20052;-73
2021/03/11 05:27:43;;;;;;;65.72;31.45;;;;;;;2.79;94.29;99676.59;4997892;28;20074;-72
2021/03/11 05:30:11;;;;;;;61.03;29.90;;;;;;;2.80;94.49;99674.84;5016887;28;20057;-71
2021/03/11 05:32:38;;;;;;;61.97;31.08;;;;;;;2.88;94.66;99669.31;5020632;28;20084;-71
2021/03/11 05:35:06;;;;;;;63.03;29.08;;;;;;;2.82;94.93;99672.16;4997241;28;20052;-71
2021/03/11 05:37:36;;;;;;;58.80;30.00;;;;;;;2.81;95.49;99666.13;4984882;28;20053;-72
2021/03/11 05:40:06;;;;;;;61.72;32.15;;;;;;;2.81;95.67;99658.34;5026587;28;20060;-72
2021/03/11 05:42:33;;;;;;;60.45;30.80;;;;;;;2.83;95.09;99659.09;4997488;28;20042;-72
2021/03/11 05:45:00;;;;;;;63.38;31.95;;;;;;;2.84;96.05;99659.94;4997715;28;20068;-72
2021/03/11 05:47:26;;;;;;;59.75;31.08;;;;;;;2.85;96.08;99646.91;5035133;28;20113;-72
2021/03/11 05:49:54;;;;;;;60.15;30.27;;;;;;;2.84;96.70;99642.63;5047315;28;20453;-72
2021/03/11 05:52:21;;;;;;;71.00;33.55;;;;;;;2.77;97.06;99648.97;5014982;28;20050;-71
2021/03/11 05:54:47;;;;;;;65.68;32.63;;;;;;;2.82;97.18;99626.22;4997953;28;20160;-72
2021/03/11 05:57:22;;;;;;;67.70;33.28;;;;;;;2.82;97.13;99628.00;4997712;28;20052;-72
2021/03/11 05:59:53;;;;;;;69.13;33.25;;;;;;;2.84;98.32;99627.03;5006220;28;20044;-72
2021/03/11 06:02:22;;;;;;;62.65;30.75;;;;;;;2.87;97.75;99600.03;4998173;28;20402;-72
2021/03/11 06:04:52;;;;;;;69.07;33.13;;;;;;;2.91;98.04;99605.03;5000451;28;20121;-72
2021/03/11 06:07:20;;;;;;;72.47;34.03;;;;;;;2.92;99.20;99598.91;5007377;28;20049;-73
2021/03/11 06:09:47;;;;;;;66.80;31.38;;;;;;;2.96;99.27;99604.84;5013448;28;20068;-72
2021/03/11 06:12:14;;;;;;;70.20;33.58;;;;;;;2.92;99.68;99598.06;5012764;28;20201;-73
2021/03/11 06:14:42;;;;;;;74.13;33.38;;;;;;;2.89;99.81;99588.66;5013399;28;20064;-71
2021/03/11 06:17:09;;;;;;;67.05;33.80;;;;;;;2.94;99.88;99580.66;4984638;28;20053;-73
2021/03/11 06:19:36;;;;;;;65.88;32.90;;;;;;;3.00;99.68;99578.63;5016315;28;20043;-73
2021/03/11 06:22:03;;;;;;;67.88;33.90;;;;;;;3.03;100.00;99572.47;4997828;28;20429;-72
2021/03/11 06:24:30;;;;;;;66.38;31.65;;;;;;;2.95;100.00;99561.56;4986436;28;20644;-73
2021/03/11 06:26:56;;;;;;;70.13;33.97;;;;;;;3.07;100.00;99567.97;5018847;28;20049;-72
2021/03/11 06:29:40;;;;;;;64.47;31.55;;;;;;;3.09;100.00;99566.97;5005756;28;20052;-73
2021/03/11 06:32:08;;;;;;;65.22;32.95;;;;;;;3.02;100.00;99556.03;5011310;28;20049;-73
2021/03/11 06:34:44;;;;;;;71.82;32.38;;;;;;;3.03;100.00;99554.25;5010799;28;20054;-73
2021/03/11 06:37:11;;;;;;;77.47;34.65;;;;;;;3.00;100.00;99549.19;5002033;28;20557;-74
2021/03/11 06:39:44;;;;;;;72.65;33.10;;;;;;;3.06;100.00;99528.09;5022847;28;20438;-73
2021/03/11 06:42:13;;;;;;;71.95;33.08;;;;;;;3.08;100.00;99522.84;5002993;28;20061;-72
2021/03/11 06:44:46;;;;;;;73.03;33.00;;;;;;;3.14;100.00;99518.19;4988629;28;20104;-72
2021/03/11 06:47:15;;;;;;;65.50;31.90;;;;;;;3.19;100.00;99508.41;5012095;28;20052;-73
2021/03/11 06:50:03;;;;;;;70.72;33.58;;;;;;;3.12;100.00;99496.63;5006514;28;20657;-74
2021/03/11 06:52:29;;;;;;;63.83;31.00;;;;;;;3.18;100.00;99505.91;5001892;28;20312;-72
2021/03/11 06:55:04;;;;;;;63.22;33.58;;;;;;;3.17;100.00;99506.81;5007871;28;20069;-73
2021/03/11 06:57:32;;;;;;;73.47;35.33;;;;;;;3.23;100.00;99493.53;5026484;28;20041;-72
2021/03/11 07:00:00;;;;;;;67.25;33.50;;;;;;;3.13;100.00;99498.31;4998438;28;20086;-75
2021/03/11 07:02:28;;;;;;;64.53;32.50;;;;;;;3.10;100.00;99501.03;4982392;28;20045;-73
2021/03/11 07:04:56;;;;;;;68.97;33.70;;;;;;;3.05;100.00;99493.47;5009211;28;20064;-72
2021/03/11 07:07:23;;;;;;;72.45;35.40;;;;;;;3.11;100.00;99487.16;4999416;28;20062;-72
2021/03/11 07:09:54;;;;;;;78.30;35.10;;;;;;;3.22;100.00;99484.03;4997482;28;20053;-71
2021/03/11 07:12:21;;;;;;;72.57;34.45;;;;;;;3.26;100.00;99483.81;5022649;28;20459;-71
2021/03/11 07:14:49;;;;;;;73.38;34.08;;;;;;;3.30;100.00;99477.56;5024046;28;20058;-71
2021/03/11 07:17:21;;;;;;;64.35;30.63;;;;;;;3.21;100.00;99471.97;5022873;23;20350;-70
2021/03/11 07:20:14;;;;;;;71.03;33.67;;;;;;;3.21;100.00;99462.41;5000957;28;20137;-68
2021/03/11 07:23:09;;;;;;;69.35;32.42;;;;;;;3.18;100.00;99467.72;5014690;28;20824;-69
2021/03/11 07:25:38;;;;;;;72.72;33.90;;;;;;;3.08;100.00;99457.84;4999914;28;20050;-68
2021/03/11 07:28:07;;;;;;;74.53;34.47;;;;;;;3.20;100.00;99462.47;4980886;28;20060;-69
2021/03/11 07:30:51;;;;;;;71.40;32.92;;;;;;;3.29;100.00;99460.28;4995381;28;20053;-71
2021/03/11 07:33:19;;;;;;;64.72;31.33;;;;;;;3.26;100.00;99456.97;4978906;28;20057;-70
2021/03/11 07:35:47;;;;;;;70.95;34.03;;;;;;;3.26;100.00;99444.81;4987646;28;20057;-70
2021/03/11 07:38:24;;;;;;;73.25;33.97;;;;;;;3.18;100.00;99448.69;4975548;28;20058;-71
2021/03/11 07:40:52;;;;;;;76.57;34.28;;;;;;;3.13;100.00;99451.50;4994027;28;20068;-71
2021/03/11 07:43:20;;;;;;;76.13;33.35;;;;;;;3.24;100.00;99449.25;4985183;28;20042;-69
2021/03/11 07:45:47;;;;;;;66.78;31.83;;;;;;;3.67;100.00;99441.94;4972284;28;20054;-70
2021/03/11 07:48:15;;;;;;;71.07;32.80;;;;;;;3.72;100.00;99436.53;4993158;28;20045;-72
2021/03/11 07:50:43;;;;;;;61.75;30.85;;;;;;;3.79;100.00;99433.53;4996176;28;20429;-71
2021/03/11 07:53:10;;;;;;;58.60;30.60;;;;;;;3.68;100.00;99437.59;4974359;28;20065;-69
2021/03/11 07:55:38;;;;;;;59.88;31.38;;;;;;;3.62;100.00;99425.72;4986883;28;20874;-69
2021/03/11 07:58:07;;;;;;;59.72;30.35;;;;;;;3.67;100.00;99415.94;4976392;28;20053;-71
2021/03/11 08:00:34;;;;;;;58.58;30.55;;;;;;;3.78;100.00;99405.84;4977150;28;20070;-71
2021/03/11 08:03:07;;;;;;;60.92;30.25;;;;;;;3.78;100.00;99410.16;4990480;28;20078;-73
2021/03/11 08:05:34;;;;;;;58.53;30.23;;;;;;;3.76;100.00;99418.06;4985410;28;20060;-70
2021/03/11 08:08:25;;;;;;;61.72;30.58;;;;;;;3.74;100.00;99411.28;4990833;28;20073;-71
2021/03/11 08:10:54;;;;;;;60.00;29.05;;;;;;;3.78;100.00;99400.63;4974031;28;21073;-71
2021/03/11 08:13:23;;;;;;;62.30;29.67;;;;;;;3.74;100.00;99393.91;4975628;28;20069;-72
2021/03/11 08:15:50;;;;;;;59.83;30.08;;;;;;;3.66;100.00;99393.44;4988536;28;20853;-70
2021/03/11 08:18:32;;;;;;;61.45;31.55;;;;;;;3.69;100.00;99382.00;4977630;28;20084;-70
2021/03/11 08:21:01;;;;;;;62.65;30.42;;;;;;;3.76;100.00;99392.03;4992303;28;20057;-71
2021/03/11 08:23:35;;;;;;;59.60;29.83;;;;;;;3.89;100.00;99387.06;4980870;28;20057;-69
2021/03/11 08:26:03;;;;;;;59.33;29.85;;;;;;;3.83;100.00;99382.19;4989692;28;20062;-70
2021/03/11 08:28:29;;;;;;;58.67;29.80;;;;;;;3.92;100.00;99391.28;4991270;28;20553;-70
2021/03/11 08:31:01;;;;;;;62.38;30.10;;;;;;;4.06;100.00;99384.44;4965211;28;20058;-71
2021/03/11 08:33:28;;;;;;;55.00;27.13;;;;;;;4.10;100.00;99381.63;4993927;28;20058;-71
2021/03/11 08:35:56;;;;;;;58.72;30.75;;;;;;;4.34;100.00;99377.75;4995397;28;20139;-70
2021/03/11 08:38:23;;;;;;;51.42;28.17;;;;;;;4.18;100.00;99371.66;4962568;28;20054;-71
2021/03/11 08:41:03;;;;;;;56.05;29.70;;;;;;;4.07;100.00;99367.88;4995363;28;20081;-69
2021/03/11 08:43:36;;;;;;;58.67;29.90;;;;;;;4.26;100.00;99377.31;4979283;28;20061;-71
2021/03/11 08:46:03;;;;;;;61.72;30.27;;;;;;;4.33;100.00;99370.88;4986964;28;20069;-72
2021/03/11 08:48:50;;;;;;;54.45;29.23;;;;;;;4.26;100.00;99367.75;4987133;28;20053;-70
2021/03/11 08:51:17;;;;;;;54.67;28.13;;;;;;;4.21;100.00;99355.88;4964793;28;20502;-72
2021/03/11 08:53:48;;;;;;;57.67;29.25;;;;;;;4.21;100.00;99361.94;4986393;28;20085;-73
2021/03/11 08:56:17;;;;;;;57.40;28.58;;;;;;;4.17;100.00;99359.56;4989384;28;20150;-70
2021/03/11 08:59:04;;;;;;;59.35;29.27;;;;;;;4.25;100.00;99347.00;4989385;28;20075;-70
2021/03/11 09:01:58;;;;;;;52.58;27.88;;;;;;;4.21;100.00;99330.69;4990863;28;20053;-72
2021/03/11 09:04:29;;;;;;;56.53;28.58;;;;;;;4.31;100.00;99329.25;5003225;28;20062;-71
2021/03/11 09:07:04;;;;;;;52.13;28.00;;;;;;;4.28;100.00;99334.66;5001814;28;20058;-71
2021/03/11 09:09:45;;;;;;;60.20;30.48;;;;;;;4.18;100.00;99336.03;4991993;28;20141;-72
2021/03/11 09:12:16;;;;;;;53.20;28.45;;;;;;;4.22;100.00;99337.56;4982490;28;20061;-71
2021/03/11 09:14:44;;;;;;;57.25;28.27;;;;;;;4.22;100.00;99340.16;4963278;28;20053;-72
2021/03/11 09:17:17;;;;;;;59.45;27.65;;;;;;;4.24;100.00;99335.72;4976295;28;20061;-71
2021/03/11 09:19:46;;;;;;;50.42;27.42;;;;;;;4.30;100.00;99327.56;4994387;28;20565;-73
2021/03/11 09:22:26;;;;;;;52.75;27.52;;;;;;;4.23;100.00;99330.59;4992451;28;20380;-71
2021/03/11 09:25:02;;;;;;;59.20;29.90;;;;;;;4.28;100.00;99329.44;4977586;28;20591;-72
2021/03/11 09:27:30;;;;;;;56.63;27.77;;;;;;;4.27;100.00;99326.91;4996209;28;20629;-73
2021/03/11 09:30:08;;;;;;;;;;;;;;;4.29;100.00;99332.88;4994438;28;20047;-73
2021/03/11 09:32:37;;;;;;;48.83;26.00;;;;;;;4.36;100.00;99329.00;4980801;28;19944;-71
2021/03/11 09:35:06;;;;;;;52.88;26.95;;;;;;;4.43;100.00;99324.31;4979353;28;20136;-71
2021/03/11 09:37:46;;;;;;;59.70;29.42;;;;;;;4.27;100.00;99332.09;4979967;28;20053;-71
2021/03/11 09:40:18;;;;;;;55.00;28.15;;;;;;;4.41;100.00;99327.00;4978738;28;20177;-71
2021/03/11 09:43:11;;;;;;;54.03;28.50;;;;;;;4.60;100.00;99299.94;4980252;28;20050;-75
2021/03/11 09:45:40;;;;;;;47.30;24.75;;;;;;;4.57;100.00;99286.13;4979573;28;20419;-71
2021/03/11 09:48:12;;;;;;;43.97;24.13;;;;;;;4.54;100.00;99288.91;4975554;28;20469;-72
2021/03/11 09:51:07;;;;;;;47.50;25.67;;;;;;;4.57;100.00;99274.88;4981100;28;20141;-71
2021/03/11 09:53:56;;;;;;;50.47;27.17;;;;;;;4.66;100.00;99291.78;4985386;28;20066;-72
2021/03/11 09:56:32;;;;;;;44.47;23.70;;;;;;;4.73;100.00;99265.28;4968151;28;20051;-71
2021/03/11 09:59:06;;;;;;;48.08;25.00;;;;;;;4.72;100.00;99265.34;4994515;28;20054;-73
2021/03/11 10:01:34;;;;;;;45.08;23.25;;;;;;;4.78;100.00;99268.47;4968079;28;20057;-72
2021/03/11 10:04:27;;;;;;;41.30;24.20;;;;;;;4.94;100.00;99262.38;4995002;28;20093;-72
2021/03/11 10:06:59;;;;;;;48.05;23.52;;;;;;;4.94;100.00;99263.19;4996356;28;20054;-74
2021/03/11 10:09:39;;;;;;;41.80;20.73;;;;;;;4.95;100.00;99256.22;4979320;28;20680;-73
2021/03/11 10:12:06;;;;;;;40.15;21.77;;;;;;;4.98;100.00;99248.22;4980513;28;20041;-74
2021/03/11 10:14:33;;;;;;;40.33;22.65;;;;;;;5.03;100.00;99246.19;4992539;28;20072;-74
2021/03/11 10:17:02;;;;;;;40.00;21.80;;;;;;;4.99;100.00;99250.72;4966971;28;20046;-73
2021/03/11 10:19:35;;;;;;;39.42;22.70;;;;;;;5.00;100.00;99249.81;4969304;28;20580;-75
2021/03/11 10:22:16;;;;;;;38.00;22.08;;;;;;;5.10;100.00;99241.47;4973139;28;20066;-75
2021/03/11 10:24:42;;;;;;;35.95;21.25;;;;;;;5.12;100.00;99250.88;4970597;28;20072;-70
2021/03/11 10:27:30;;;;;;;37.88;21.23;;;;;;;5.16;100.00;99257.59;4991318;28;20053;-72
2021/03/11 10:30:13;;;;;;;42.33;22.13;;;;;;;5.19;100.00;99246.13;4965437;28;20061;-71
2021/03/11 10:32:42;;;;;;;37.20;21.80;;;;;;;5.21;100.00;99239.06;4993275;28;20601;-74
2021/03/11 10:35:11;;;;;;;39.63;20.88;;;;;;;5.24;100.00;99234.50;4976521;28;20068;-71
2021/03/11 10:37:40;;;;;;;33.78;20.27;;;;;;;5.26;100.00;99229.19;4993474;28;20062;-70
2021/03/11 10:40:08;;;;;;;37.63;19.95;;;;;;;5.24;100.00;99237.09;4969951;28;20062;-70
2021/03/11 10:42:42;;;;;;;42.03;20.75;;;;;;;5.37;100.00;99216.34;4974895;28;20064;-71
2021/03/11 10:45:11;;;;;;;31.10;18.92;;;;;;;5.49;100.00;99209.53;4986953;28;20921;-71
2021/03/11 10:47:38;;;;;;;30.02;19.08;;;;;;;5.43;100.00;99226.41;4997375;28;20164;-72
2021/03/11 10:50:19;;;;;;;32.70;19.15;;;;;;;5.58;100.00;99202.00;4978125;28;20058;-72
2021/03/11 10:52:52;;;;;;;31.52;19.20;;;;;;;5.63;100.00;99213.91;5003502;28;20082;-70
2021/03/11 10:55:28;;;;;;;35.15;19.48;;;;;;;5.59;100.00;99202.84;4991727;28;20521;-71
2021/03/11 10:57:55;;;;;;;32.53;18.42;;;;;;;5.97;100.00;99179.59;4965452;28;20153;-71
2021/03/11 11:00:23;;;;;;;30.45;18.75;;;;;;;6.44;100.00;99175.72;4963616;28;20051;-70
2021/03/11 11:02:55;;;;;;;29.77;16.52;;;;;;;6.80;99.23;99171.63;4994428;28;20473;-73
2021/03/11 11:05:23;;;;;;;23.85;16.00;;;;;;;7.19;96.06;99152.38;4983746;28;20050;-72
2021/03/11 11:07:50;;;;;;;34.33;16.50;;;;;;;7.25;95.33;99164.19;4981173;28;20062;-70
2021/03/11 11:10:19;;;;;;;23.67;15.30;;;;;;;7.12;96.64;99160.78;4992553;28;20465;-71
2021/03/11 11:12:46;;;;;;;28.80;16.52;;;;;;;7.42;96.70;99147.34;4992666;28;20062;-72
2021/03/11 11:15:15;;;;;;;21.52;14.48;;;;;;;7.31;95.83;99137.63;4945074;28;20232;-70
2021/03/11 11:17:41;;;;;;;25.38;16.05;;;;;;;7.36;95.61;99128.50;4997269;28;20050;-70
2021/03/11 11:20:10;;;;;;;25.55;14.80;;;;;;;7.41;95.10;99124.72;4987654;28;20512;-71
2021/03/11 11:22:37;;;;;;;19.42;14.57;;;;;;;7.39;96.89;99122.22;4995757;28;20053;-71
2021/03/11 11:25:06;;;;;;;23.02;15.18;;;;;;;7.52;95.37;99112.56;4989700;28;20054;-71
2021/03/11 11:27:33;;;;;;;22.42;13.95;;;;;;;7.75;93.77;99110.09;4994911;28;20046;-71
2021/03/11 11:30:07;;;;;;;26.10;15.45;;;;;;;7.83;94.24;99111.22;4973905;28;20094;-70
2021/03/11 11:32:34;;;;;;;21.17;12.98;;;;;;;7.96;91.78;99090.19;4988239;28;20050;-70
2021/03/11 11:35:03;;;;;;;20.05;13.18;;;;;;;8.16;91.47;99078.28;4973236;28;20057;-71